sensor_id;sensor_type;location;lat;lon;timestamp;P1;durP1;ratioP1;P2;durP2;ratioP2
77160;SDS011;66135;0.000;0.000;2024-03-08T00:04:20;5.38;;;3.38;;
77160;SDS011;66135;0.000;0.000;2024-03-08T00:09:12;5.20;;;3.00;;
77160;SDS011;66135;0.000;0.000;2024-03-08T00:14:03;5.72;;;3.97;;
77160;SDS011;66135;0.000;0.000;2024-03-08T00:16:31;4.72;;;3.05;;
77160;SDS011;66135;0.000;0.000;2024-03-08T00:21:23;6.10;;;3.03;;
77160;SDS011;66135;0.000;0.000;2024-03-08T00:26:13;6.13;;;3.37;;
77160;SDS011;66135;0.000;0.000;2024-03-08T00:31:04;5.47;;;3.60;;
77160;SDS011;66135;0.000;0.000;2024-03-08T00:33:29;5.38;;;3.25;;
77160;SDS011;66135;0.000;0.000;2024-03-08T00:38:20;5.13;;;3.07;;
77160;SDS011;66135;0.000;0.000;2024-03-08T00:40:45;6.25;;;3.28;;
77160;SDS011;66135;0.000;0.000;2024-03-08T00:45:37;6.80;;;4.18;;
77160;SDS011;66135;0.000;0.000;2024-03-08T00:50:28;6.88;;;3.67;;
77160;SDS011;66135;0.000;0.000;2024-03-08T00:55:19;5.30;;;3.42;;
77160;SDS011;66135;0.000;0.000;2024-03-08T00:57:45;5.55;;;3.60;;
77160;SDS011;66135;0.000;0.000;2024-03-08T01:02:37;5.35;;;3.63;;
77160;SDS011;66135;0.000;0.000;2024-03-08T01:05:05;5.35;;;3.05;;
77160;SDS011;66135;0.000;0.000;2024-03-08T01:07:34;5.78;;;3.85;;
77160;SDS011;66135;0.000;0.000;2024-03-08T01:12:26;4.70;;;3.40;;
77160;SDS011;66135;0.000;0.000;2024-03-08T01:14:51;6.05;;;3.70;;
77160;SDS011;66135;0.000;0.000;2024-03-08T01:17:17;4.45;;;3.22;;
77160;SDS011;66135;0.000;0.000;2024-03-08T01:19:42;5.40;;;3.55;;
77160;SDS011;66135;0.000;0.000;2024-03-08T01:22:10;5.50;;;3.67;;
77160;SDS011;66135;0.000;0.000;2024-03-08T01:27:01;6.03;;;3.28;;
77160;SDS011;66135;0.000;0.000;2024-03-08T01:29:27;6.72;;;3.90;;
77160;SDS011;66135;0.000;0.000;2024-03-08T01:31:54;5.65;;;4.85;;
77160;SDS011;66135;0.000;0.000;2024-03-08T01:34:21;5.90;;;3.63;;
77160;SDS011;66135;0.000;0.000;2024-03-08T01:36:47;5.68;;;3.55;;
77160;SDS011;66135;0.000;0.000;2024-03-08T01:41:38;5.82;;;3.78;;
77160;SDS011;66135;0.000;0.000;2024-03-08T01:44:05;4.93;;;3.15;;
77160;SDS011;66135;0.000;0.000;2024-03-08T01:46:32;4.65;;;3.58;;
77160;SDS011;66135;0.000;0.000;2024-03-08T01:48:59;4.82;;;3.25;;
77160;SDS011;66135;0.000;0.000;2024-03-08T01:51:28;4.47;;;3.25;;
77160;SDS011;66135;0.000;0.000;2024-03-08T01:53:56;4.85;;;3.47;;
77160;SDS011;66135;0.000;0.000;2024-03-08T01:56:23;5.45;;;3.88;;
77160;SDS011;66135;0.000;0.000;2024-03-08T01:58:50;5.55;;;3.55;;
77160;SDS011;66135;0.000;0.000;2024-03-08T02:01:16;4.75;;;3.28;;
77160;SDS011;66135;0.000;0.000;2024-03-08T02:06:09;5.15;;;3.35;;
77160;SDS011;66135;0.000;0.000;2024-03-08T02:08:38;5.25;;;3.92;;
77160;SDS011;66135;0.000;0.000;2024-03-08T02:13:29;4.88;;;3.53;;
77160;SDS011;66135;0.000;0.000;2024-03-08T02:15:55;5.35;;;3.33;;
77160;SDS011;66135;0.000;0.000;2024-03-08T02:18:24;5.43;;;3.83;;
77160;SDS011;66135;0.000;0.000;2024-03-08T02:20:51;5.35;;;3.60;;
77160;SDS011;66135;0.000;0.000;2024-03-08T02:23:23;5.45;;;3.17;;
77160;SDS011;66135;0.000;0.000;2024-03-08T02:25:52;6.28;;;4.32;;
77160;SDS011;66135;0.000;0.000;2024-03-08T02:28:19;4.65;;;3.28;;
77160;SDS011;66135;0.000;0.000;2024-03-08T02:30:45;4.97;;;3.40;;
77160;SDS011;66135;0.000;0.000;2024-03-08T02:33:13;5.07;;;3.58;;
77160;SDS011;66135;0.000;0.000;2024-03-08T02:35:41;5.40;;;4.05;;
77160;SDS011;66135;0.000;0.000;2024-03-08T02:38:07;5.85;;;3.97;;
77160;SDS011;66135;0.000;0.000;2024-03-08T02:40:33;5.13;;;3.92;;
77160;SDS011;66135;0.000;0.000;2024-03-08T02:45:23;5.37;;;3.60;;
77160;SDS011;66135;0.000;0.000;2024-03-08T02:47:49;6.13;;;3.83;;
77160;SDS011;66135;0.000;0.000;2024-03-08T02:50:15;6.45;;;3.72;;
77160;SDS011;66135;0.000;0.000;2024-03-08T02:52:41;5.43;;;3.95;;
77160;SDS011;66135;0.000;0.000;2024-03-08T02:55:11;4.60;;;3.17;;
77160;SDS011;66135;0.000;0.000;2024-03-08T02:57:40;5.50;;;3.42;;
77160;SDS011;66135;0.000;0.000;2024-03-08T03:02:34;6.70;;;4.03;;
77160;SDS011;66135;0.000;0.000;2024-03-08T03:04:59;5.35;;;3.92;;
77160;SDS011;66135;0.000;0.000;2024-03-08T03:07:30;4.97;;;3.80;;
77160;SDS011;66135;0.000;0.000;2024-03-08T03:09:55;4.75;;;3.60;;
77160;SDS011;66135;0.000;0.000;2024-03-08T03:14:46;3.67;;;3.07;;
77160;SDS011;66135;0.000;0.000;2024-03-08T03:19:40;5.85;;;3.95;;
77160;SDS011;66135;0.000;0.000;2024-03-08T03:22:06;5.03;;;3.78;;
77160;SDS011;66135;0.000;0.000;2024-03-08T03:24:34;5.30;;;3.83;;
77160;SDS011;66135;0.000;0.000;2024-03-08T03:27:03;5.47;;;3.78;;
77160;SDS011;66135;0.000;0.000;2024-03-08T03:32:10;4.72;;;3.67;;
77160;SDS011;66135;0.000;0.000;2024-03-08T03:34:37;4.95;;;3.58;;
77160;SDS011;66135;0.000;0.000;2024-03-08T03:37:03;4.95;;;3.55;;
77160;SDS011;66135;0.000;0.000;2024-03-08T03:39:29;6.03;;;3.92;;
77160;SDS011;66135;0.000;0.000;2024-03-08T03:41:59;4.65;;;3.50;;
77160;SDS011;66135;0.000;0.000;2024-03-08T03:44:27;5.25;;;3.38;;
77160;SDS011;66135;0.000;0.000;2024-03-08T03:46:53;5.28;;;4.03;;
77160;SDS011;66135;0.000;0.000;2024-03-08T03:49:19;6.18;;;4.03;;
77160;SDS011;66135;0.000;0.000;2024-03-08T03:51:44;4.40;;;3.42;;
77160;SDS011;66135;0.000;0.000;2024-03-08T03:54:10;5.05;;;4.03;;
77160;SDS011;66135;0.000;0.000;2024-03-08T03:56:36;4.80;;;3.33;;
77160;SDS011;66135;0.000;0.000;2024-03-08T03:59:01;4.43;;;3.53;;
77160;SDS011;66135;0.000;0.000;2024-03-08T04:01:27;5.10;;;4.00;;
77160;SDS011;66135;0.000;0.000;2024-03-08T04:03:52;4.70;;;3.63;;
77160;SDS011;66135;0.000;0.000;2024-03-08T04:06:18;5.38;;;3.75;;
77160;SDS011;66135;0.000;0.000;2024-03-08T04:08:43;4.93;;;3.65;;
77160;SDS011;66135;0.000;0.000;2024-03-08T04:11:08;4.80;;;3.67;;
77160;SDS011;66135;0.000;0.000;2024-03-08T04:13:34;4.57;;;4.03;;
77160;SDS011;66135;0.000;0.000;2024-03-08T04:16:01;4.22;;;3.33;;
77160;SDS011;66135;0.000;0.000;2024-03-08T04:18:27;5.85;;;3.75;;
77160;SDS011;66135;0.000;0.000;2024-03-08T04:20:53;4.65;;;3.45;;
77160;SDS011;66135;0.000;0.000;2024-03-08T04:23:18;5.72;;;3.63;;
77160;SDS011;66135;0.000;0.000;2024-03-08T04:25:44;4.63;;;3.25;;
77160;SDS011;66135;0.000;0.000;2024-03-08T04:28:10;5.28;;;4.07;;
77160;SDS011;66135;0.000;0.000;2024-03-08T04:30:38;5.07;;;3.67;;
77160;SDS011;66135;0.000;0.000;2024-03-08T04:33:06;4.13;;;2.85;;
77160;SDS011;66135;0.000;0.000;2024-03-08T04:35:33;5.57;;;3.83;;
77160;SDS011;66135;0.000;0.000;2024-03-08T04:37:59;5.63;;;4.13;;
77160;SDS011;66135;0.000;0.000;2024-03-08T04:40:24;3.75;;;3.30;;
77160;SDS011;66135;0.000;0.000;2024-03-08T04:42:50;4.15;;;3.40;;
77160;SDS011;66135;0.000;0.000;2024-03-08T04:45:16;4.95;;;3.53;;
77160;SDS011;66135;0.000;0.000;2024-03-08T04:47:42;4.43;;;3.67;;
77160;SDS011;66135;0.000;0.000;2024-03-08T04:50:08;5.00;;;4.13;;
77160;SDS011;66135;0.000;0.000;2024-03-08T04:52:34;4.55;;;3.92;;
77160;SDS011;66135;0.000;0.000;2024-03-08T04:55:00;4.78;;;4.00;;
77160;SDS011;66135;0.000;0.000;2024-03-08T04:57:29;4.68;;;3.60;;
77160;SDS011;66135;0.000;0.000;2024-03-08T04:59:55;3.92;;;3.47;;
77160;SDS011;66135;0.000;0.000;2024-03-08T05:02:20;4.10;;;3.42;;
77160;SDS011;66135;0.000;0.000;2024-03-08T05:04:47;4.78;;;3.80;;
77160;SDS011;66135;0.000;0.000;2024-03-08T05:07:13;5.78;;;4.10;;
77160;SDS011;66135;0.000;0.000;2024-03-08T05:09:38;4.63;;;3.58;;
77160;SDS011;66135;0.000;0.000;2024-03-08T05:12:05;5.03;;;3.90;;
77160;SDS011;66135;0.000;0.000;2024-03-08T05:14:31;5.15;;;3.72;;
77160;SDS011;66135;0.000;0.000;2024-03-08T05:16:56;5.88;;;4.05;;
77160;SDS011;66135;0.000;0.000;2024-03-08T05:19:21;5.80;;;4.00;;
77160;SDS011;66135;0.000;0.000;2024-03-08T05:21:47;5.38;;;3.88;;
77160;SDS011;66135;0.000;0.000;2024-03-08T05:24:14;4.30;;;3.58;;
77160;SDS011;66135;0.000;0.000;2024-03-08T05:26:42;5.28;;;4.20;;
77160;SDS011;66135;0.000;0.000;2024-03-08T05:29:08;5.30;;;3.97;;
77160;SDS011;66135;0.000;0.000;2024-03-08T05:31:38;4.63;;;3.58;;
77160;SDS011;66135;0.000;0.000;2024-03-08T05:34:11;5.40;;;4.22;;
77160;SDS011;66135;0.000;0.000;2024-03-08T05:36:39;5.72;;;4.00;;
77160;SDS011;66135;0.000;0.000;2024-03-08T05:39:05;5.30;;;4.13;;
77160;SDS011;66135;0.000;0.000;2024-03-08T05:41:31;4.78;;;3.72;;
77160;SDS011;66135;0.000;0.000;2024-03-08T05:43:57;5.85;;;4.22;;
77160;SDS011;66135;0.000;0.000;2024-03-08T05:46:22;5.72;;;4.35;;
77160;SDS011;66135;0.000;0.000;2024-03-08T05:48:48;6.43;;;4.05;;
77160;SDS011;66135;0.000;0.000;2024-03-08T05:51:13;4.90;;;4.10;;
77160;SDS011;66135;0.000;0.000;2024-03-08T05:53:39;5.50;;;3.85;;
77160;SDS011;66135;0.000;0.000;2024-03-08T05:56:04;4.72;;;3.83;;
77160;SDS011;66135;0.000;0.000;2024-03-08T05:58:30;6.10;;;4.57;;
77160;SDS011;66135;0.000;0.000;2024-03-08T06:00:56;6.20;;;4.38;;
77160;SDS011;66135;0.000;0.000;2024-03-08T06:03:22;6.15;;;4.70;;
77160;SDS011;66135;0.000;0.000;2024-03-08T06:05:50;5.60;;;4.30;;
77160;SDS011;66135;0.000;0.000;2024-03-08T06:08:16;5.63;;;4.32;;
77160;SDS011;66135;0.000;0.000;2024-03-08T06:10:41;6.10;;;3.72;;
77160;SDS011;66135;0.000;0.000;2024-03-08T06:13:07;5.70;;;4.57;;
77160;SDS011;66135;0.000;0.000;2024-03-08T06:15:32;6.20;;;4.38;;
77160;SDS011;66135;0.000;0.000;2024-03-08T06:17:57;6.28;;;5.32;;
77160;SDS011;66135;0.000;0.000;2024-03-08T06:20:23;5.85;;;4.82;;
77160;SDS011;66135;0.000;0.000;2024-03-08T06:22:51;5.03;;;4.40;;
77160;SDS011;66135;0.000;0.000;2024-03-08T06:25:17;6.95;;;5.18;;
77160;SDS011;66135;0.000;0.000;2024-03-08T06:27:43;5.60;;;4.53;;
77160;SDS011;66135;0.000;0.000;2024-03-08T06:30:09;7.18;;;4.93;;
77160;SDS011;66135;0.000;0.000;2024-03-08T06:32:35;6.10;;;4.68;;
77160;SDS011;66135;0.000;0.000;2024-03-08T06:35:04;6.10;;;4.88;;
77160;SDS011;66135;0.000;0.000;2024-03-08T06:37:33;7.28;;;5.22;;
77160;SDS011;66135;0.000;0.000;2024-03-08T06:39:59;5.82;;;4.40;;
77160;SDS011;66135;0.000;0.000;2024-03-08T06:42:25;6.32;;;4.60;;
77160;SDS011;66135;0.000;0.000;2024-03-08T06:44:52;6.35;;;4.40;;
77160;SDS011;66135;0.000;0.000;2024-03-08T06:47:20;6.32;;;4.95;;
77160;SDS011;66135;0.000;0.000;2024-03-08T06:49:46;4.85;;;4.25;;
77160;SDS011;66135;0.000;0.000;2024-03-08T06:54:37;8.65;;;4.85;;
77160;SDS011;66135;0.000;0.000;2024-03-08T06:57:03;7.22;;;4.88;;
77160;SDS011;66135;0.000;0.000;2024-03-08T07:01:54;5.90;;;4.22;;
77160;SDS011;66135;0.000;0.000;2024-03-08T07:04:20;5.80;;;4.47;;
77160;SDS011;66135;0.000;0.000;2024-03-08T07:06:47;6.43;;;4.68;;
77160;SDS011;66135;0.000;0.000;2024-03-08T07:09:15;6.15;;;4.22;;
77160;SDS011;66135;0.000;0.000;2024-03-08T07:11:42;5.82;;;4.53;;
77160;SDS011;66135;0.000;0.000;2024-03-08T07:14:07;7.00;;;5.05;;
77160;SDS011;66135;0.000;0.000;2024-03-08T07:16:33;7.22;;;4.97;;
77160;SDS011;66135;0.000;0.000;2024-03-08T07:19:00;7.40;;;4.95;;
77160;SDS011;66135;0.000;0.000;2024-03-08T07:23:52;5.95;;;4.07;;
77160;SDS011;66135;0.000;0.000;2024-03-08T07:26:34;5.00;;;4.38;;
77160;SDS011;66135;0.000;0.000;2024-03-08T07:29:00;6.05;;;4.72;;
77160;SDS011;66135;0.000;0.000;2024-03-08T07:31:25;8.65;;;4.43;;
77160;SDS011;66135;0.000;0.000;2024-03-08T07:33:51;5.97;;;4.70;;
77160;SDS011;66135;0.000;0.000;2024-03-08T07:36:18;4.68;;;4.13;;
77160;SDS011;66135;0.000;0.000;2024-03-08T07:38:44;5.63;;;4.47;;
77160;SDS011;66135;0.000;0.000;2024-03-08T07:41:11;7.53;;;4.50;;
77160;SDS011;66135;0.000;0.000;2024-03-08T07:43:41;5.35;;;4.00;;
77160;SDS011;66135;0.000;0.000;2024-03-08T07:46:06;5.88;;;4.75;;
77160;SDS011;66135;0.000;0.000;2024-03-08T07:48:35;6.13;;;4.32;;
77160;SDS011;66135;0.000;0.000;2024-03-08T07:51:01;4.03;;;3.50;;
77160;SDS011;66135;0.000;0.000;2024-03-08T07:53:28;4.95;;;3.78;;
77160;SDS011;66135;0.000;0.000;2024-03-08T07:55:53;5.90;;;3.67;;
77160;SDS011;66135;0.000;0.000;2024-03-08T07:58:19;7.85;;;4.22;;
77160;SDS011;66135;0.000;0.000;2024-03-08T08:00:44;5.20;;;4.10;;
77160;SDS011;66135;0.000;0.000;2024-03-08T08:03:10;4.60;;;3.28;;
77160;SDS011;66135;0.000;0.000;2024-03-08T08:05:35;4.38;;;3.58;;
77160;SDS011;66135;0.000;0.000;2024-03-08T08:08:03;5.78;;;4.18;;
77160;SDS011;66135;0.000;0.000;2024-03-08T08:10:38;4.25;;;3.65;;
77160;SDS011;66135;0.000;0.000;2024-03-08T08:13:03;6.70;;;3.97;;
77160;SDS011;66135;0.000;0.000;2024-03-08T08:15:29;5.25;;;3.92;;
77160;SDS011;66135;0.000;0.000;2024-03-08T08:17:55;3.92;;;3.30;;
77160;SDS011;66135;0.000;0.000;2024-03-08T08:20:20;4.07;;;3.67;;
77160;SDS011;66135;0.000;0.000;2024-03-08T08:22:47;4.70;;;3.40;;
77160;SDS011;66135;0.000;0.000;2024-03-08T08:25:13;5.45;;;3.75;;
77160;SDS011;66135;0.000;0.000;2024-03-08T08:27:40;5.53;;;4.03;;
77160;SDS011;66135;0.000;0.000;2024-03-08T08:30:07;4.32;;;3.92;;
77160;SDS011;66135;0.000;0.000;2024-03-08T08:35:00;4.40;;;3.78;;
77160;SDS011;66135;0.000;0.000;2024-03-08T08:37:25;4.57;;;3.60;;
77160;SDS011;66135;0.000;0.000;2024-03-08T08:39:50;5.05;;;3.92;;
77160;SDS011;66135;0.000;0.000;2024-03-08T08:42:17;6.10;;;3.97;;
77160;SDS011;66135;0.000;0.000;2024-03-08T08:44:43;7.20;;;3.95;;
77160;SDS011;66135;0.000;0.000;2024-03-08T08:47:08;4.80;;;3.42;;
77160;SDS011;66135;0.000;0.000;2024-03-08T08:49:33;5.47;;;4.70;;
77160;SDS011;66135;0.000;0.000;2024-03-08T08:52:00;6.25;;;4.03;;
77160;SDS011;66135;0.000;0.000;2024-03-08T08:54:26;4.68;;;4.20;;
77160;SDS011;66135;0.000;0.000;2024-03-08T08:56:52;5.97;;;4.07;;
77160;SDS011;66135;0.000;0.000;2024-03-08T08:59:18;5.60;;;4.13;;
77160;SDS011;66135;0.000;0.000;2024-03-08T09:01:47;4.68;;;4.15;;
77160;SDS011;66135;0.000;0.000;2024-03-08T09:04:12;5.45;;;4.20;;
77160;SDS011;66135;0.000;0.000;2024-03-08T09:06:38;5.57;;;3.45;;
77160;SDS011;66135;0.000;0.000;2024-03-08T09:09:06;4.45;;;3.90;;
77160;SDS011;66135;0.000;0.000;2024-03-08T09:11:34;6.55;;;4.85;;
77160;SDS011;66135;0.000;0.000;2024-03-08T09:14:00;4.47;;;4.07;;
77160;SDS011;66135;0.000;0.000;2024-03-08T09:16:27;4.38;;;3.53;;
77160;SDS011;66135;0.000;0.000;2024-03-08T09:21:17;5.30;;;4.13;;
77160;SDS011;66135;0.000;0.000;2024-03-08T09:23:43;5.05;;;3.58;;
77160;SDS011;66135;0.000;0.000;2024-03-08T09:26:09;5.78;;;4.25;;
77160;SDS011;66135;0.000;0.000;2024-03-08T09:28:37;5.97;;;4.30;;
77160;SDS011;66135;0.000;0.000;2024-03-08T09:31:03;5.53;;;4.32;;
77160;SDS011;66135;0.000;0.000;2024-03-08T09:33:30;5.45;;;3.47;;
77160;SDS011;66135;0.000;0.000;2024-03-08T09:35:56;5.70;;;3.97;;
77160;SDS011;66135;0.000;0.000;2024-03-08T09:38:23;5.68;;;4.00;;
77160;SDS011;66135;0.000;0.000;2024-03-08T09:40:50;4.82;;;4.20;;
77160;SDS011;66135;0.000;0.000;2024-03-08T09:43:16;5.65;;;4.28;;
77160;SDS011;66135;0.000;0.000;2024-03-08T09:45:43;5.40;;;3.95;;
77160;SDS011;66135;0.000;0.000;2024-03-08T09:48:11;6.40;;;4.53;;
77160;SDS011;66135;0.000;0.000;2024-03-08T09:50:41;4.60;;;3.65;;
77160;SDS011;66135;0.000;0.000;2024-03-08T09:53:07;4.60;;;3.90;;
77160;SDS011;66135;0.000;0.000;2024-03-08T09:55:36;4.93;;;3.72;;
77160;SDS011;66135;0.000;0.000;2024-03-08T09:58:07;5.20;;;3.67;;
77160;SDS011;66135;0.000;0.000;2024-03-08T10:00:42;4.47;;;3.70;;
77160;SDS011;66135;0.000;0.000;2024-03-08T10:05:34;4.93;;;3.63;;
77160;SDS011;66135;0.000;0.000;2024-03-08T10:10:25;5.10;;;3.92;;
77160;SDS011;66135;0.000;0.000;2024-03-08T10:12:51;5.40;;;4.22;;
77160;SDS011;66135;0.000;0.000;2024-03-08T10:17:42;4.20;;;3.60;;
77160;SDS011;66135;0.000;0.000;2024-03-08T10:20:15;4.10;;;3.22;;
77160;SDS011;66135;0.000;0.000;2024-03-08T10:22:42;5.28;;;4.13;;
77160;SDS011;66135;0.000;0.000;2024-03-08T10:25:09;4.80;;;3.83;;
77160;SDS011;66135;0.000;0.000;2024-03-08T10:27:36;6.07;;;4.25;;
77160;SDS011;66135;0.000;0.000;2024-03-08T10:30:01;5.22;;;3.85;;
77160;SDS011;66135;0.000;0.000;2024-03-08T10:32:28;5.07;;;3.95;;
77160;SDS011;66135;0.000;0.000;2024-03-08T10:34:53;5.70;;;4.68;;
77160;SDS011;66135;0.000;0.000;2024-03-08T10:37:21;5.22;;;4.03;;
77160;SDS011;66135;0.000;0.000;2024-03-08T10:40:09;4.72;;;4.20;;
77160;SDS011;66135;0.000;0.000;2024-03-08T10:42:41;5.10;;;4.40;;
77160;SDS011;66135;0.000;0.000;2024-03-08T10:50:53;5.13;;;4.07;;
77160;SDS011;66135;0.000;0.000;2024-03-08T10:53:19;5.20;;;3.80;;
77160;SDS011;66135;0.000;0.000;2024-03-08T10:55:47;5.00;;;4.20;;
77160;SDS011;66135;0.000;0.000;2024-03-08T10:58:15;5.97;;;3.72;;
77160;SDS011;66135;0.000;0.000;2024-03-08T11:00:42;5.03;;;4.00;;
77160;SDS011;66135;0.000;0.000;2024-03-08T11:03:07;4.82;;;4.10;;
77160;SDS011;66135;0.000;0.000;2024-03-08T11:06:05;5.95;;;4.35;;
77160;SDS011;66135;0.000;0.000;2024-03-08T11:10:56;5.20;;;3.45;;
77160;SDS011;66135;0.000;0.000;2024-03-08T11:16:00;4.80;;;3.75;;
77160;SDS011;66135;0.000;0.000;2024-03-08T11:18:26;6.72;;;3.70;;
77160;SDS011;66135;0.000;0.000;2024-03-08T11:20:55;5.82;;;4.35;;
77160;SDS011;66135;0.000;0.000;2024-03-08T11:23:22;4.40;;;3.95;;
77160;SDS011;66135;0.000;0.000;2024-03-08T11:25:48;4.95;;;4.07;;
77160;SDS011;66135;0.000;0.000;2024-03-08T11:33:34;4.63;;;3.65;;
77160;SDS011;66135;0.000;0.000;2024-03-08T11:38:39;4.90;;;3.22;;
77160;SDS011;66135;0.000;0.000;2024-03-08T11:41:06;6.28;;;4.10;;
77160;SDS011;66135;0.000;0.000;2024-03-08T11:46:15;4.83;;;3.70;;
77160;SDS011;66135;0.000;0.000;2024-03-08T11:51:08;4.78;;;3.83;;
77160;SDS011;66135;0.000;0.000;2024-03-08T11:53:36;5.05;;;3.70;;
77160;SDS011;66135;0.000;0.000;2024-03-08T11:58:34;6.25;;;3.67;;
77160;SDS011;66135;0.000;0.000;2024-03-08T12:01:05;4.70;;;3.85;;
77160;SDS011;66135;0.000;0.000;2024-03-08T12:03:32;5.53;;;3.55;;
77160;SDS011;66135;0.000;0.000;2024-03-08T12:06:00;4.18;;;3.67;;
77160;SDS011;66135;0.000;0.000;2024-03-08T12:08:28;4.90;;;3.72;;
77160;SDS011;66135;0.000;0.000;2024-03-08T12:10:56;4.82;;;3.47;;
77160;SDS011;66135;0.000;0.000;2024-03-08T12:13:28;4.53;;;3.65;;
77160;SDS011;66135;0.000;0.000;2024-03-08T12:15:57;4.25;;;3.75;;
77160;SDS011;66135;0.000;0.000;2024-03-08T12:18:24;4.03;;;3.30;;
77160;SDS011;66135;0.000;0.000;2024-03-08T12:21:07;4.30;;;3.22;;
77160;SDS011;66135;0.000;0.000;2024-03-08T12:23:38;4.60;;;3.28;;
77160;SDS011;66135;0.000;0.000;2024-03-08T12:26:25;3.97;;;3.30;;
77160;SDS011;66135;0.000;0.000;2024-03-08T12:28:51;5.05;;;3.67;;
77160;SDS011;66135;0.000;0.000;2024-03-08T12:31:17;4.50;;;3.75;;
77160;SDS011;66135;0.000;0.000;2024-03-08T12:33:49;5.03;;;3.78;;
77160;SDS011;66135;0.000;0.000;2024-03-08T12:36:15;5.00;;;4.00;;
77160;SDS011;66135;0.000;0.000;2024-03-08T12:38:48;4.43;;;3.47;;
77160;SDS011;66135;0.000;0.000;2024-03-08T12:41:14;4.63;;;3.33;;
77160;SDS011;66135;0.000;0.000;2024-03-08T12:43:40;3.53;;;3.20;;
77160;SDS011;66135;0.000;0.000;2024-03-08T12:48:34;4.40;;;3.38;;
77160;SDS011;66135;0.000;0.000;2024-03-08T12:51:00;4.40;;;3.78;;
77160;SDS011;66135;0.000;0.000;2024-03-08T12:55:54;3.92;;;3.30;;
77160;SDS011;66135;0.000;0.000;2024-03-08T12:58:21;4.22;;;3.10;;
77160;SDS011;66135;0.000;0.000;2024-03-08T13:03:14;5.32;;;3.65;;
77160;SDS011;66135;0.000;0.000;2024-03-08T13:08:05;4.03;;;3.00;;
77160;SDS011;66135;0.000;0.000;2024-03-08T13:10:37;4.32;;;3.05;;
77160;SDS011;66135;0.000;0.000;2024-03-08T13:15:29;3.67;;;2.78;;
77160;SDS011;66135;0.000;0.000;2024-03-08T13:20:23;4.50;;;3.20;;
77160;SDS011;66135;0.000;0.000;2024-03-08T13:22:48;4.15;;;3.28;;
77160;SDS011;66135;0.000;0.000;2024-03-08T13:25:14;4.82;;;3.30;;
77160;SDS011;66135;0.000;0.000;2024-03-08T13:30:06;4.13;;;3.13;;
77160;SDS011;66135;0.000;0.000;2024-03-08T13:34:57;4.32;;;3.50;;
77160;SDS011;66135;0.000;0.000;2024-03-08T13:37:23;4.63;;;3.30;;
77160;SDS011;66135;0.000;0.000;2024-03-08T13:42:14;4.25;;;3.13;;
77160;SDS011;66135;0.000;0.000;2024-03-08T13:44:44;3.63;;;2.80;;
77160;SDS011;66135;0.000;0.000;2024-03-08T13:47:11;4.53;;;3.42;;
77160;SDS011;66135;0.000;0.000;2024-03-08T13:49:38;4.43;;;3.15;;
77160;SDS011;66135;0.000;0.000;2024-03-08T13:52:04;4.05;;;2.90;;
77160;SDS011;66135;0.000;0.000;2024-03-08T13:54:30;3.90;;;3.15;;
77160;SDS011;66135;0.000;0.000;2024-03-08T13:56:56;4.60;;;3.40;;
77160;SDS011;66135;0.000;0.000;2024-03-08T13:59:25;3.92;;;3.17;;
77160;SDS011;66135;0.000;0.000;2024-03-08T14:01:54;3.75;;;3.38;;
77160;SDS011;66135;0.000;0.000;2024-03-08T14:06:46;4.13;;;2.80;;
77160;SDS011;66135;0.000;0.000;2024-03-08T14:09:11;4.75;;;3.40;;
77160;SDS011;66135;0.000;0.000;2024-03-08T14:11:42;5.03;;;3.35;;
77160;SDS011;66135;0.000;0.000;2024-03-08T14:14:09;3.85;;;2.95;;
77160;SDS011;66135;0.000;0.000;2024-03-08T14:16:37;3.97;;;3.28;;
77160;SDS011;66135;0.000;0.000;2024-03-08T14:19:06;4.72;;;3.85;;
77160;SDS011;66135;0.000;0.000;2024-03-08T14:23:57;5.35;;;3.75;;
77160;SDS011;66135;0.000;0.000;2024-03-08T14:26:22;4.38;;;3.40;;
77160;SDS011;66135;0.000;0.000;2024-03-08T14:31:16;5.03;;;3.17;;
77160;SDS011;66135;0.000;0.000;2024-03-08T14:33:44;3.85;;;2.92;;
77160;SDS011;66135;0.000;0.000;2024-03-08T14:36:14;4.45;;;3.22;;
77160;SDS011;66135;0.000;0.000;2024-03-08T14:38:42;12.05;;;3.92;;
77160;SDS011;66135;0.000;0.000;2024-03-08T14:43:33;6.30;;;3.63;;
77160;SDS011;66135;0.000;0.000;2024-03-08T14:45:58;4.55;;;3.20;;
77160;SDS011;66135;0.000;0.000;2024-03-08T14:48:24;4.05;;;3.15;;
77160;SDS011;66135;0.000;0.000;2024-03-08T14:53:15;4.43;;;2.60;;
77160;SDS011;66135;0.000;0.000;2024-03-08T14:58:07;5.07;;;3.10;;
77160;SDS011;66135;0.000;0.000;2024-03-08T15:00:34;4.85;;;3.92;;
77160;SDS011;66135;0.000;0.000;2024-03-08T15:03:00;4.43;;;3.05;;
77160;SDS011;66135;0.000;0.000;2024-03-08T15:05:29;4.90;;;3.55;;
77160;SDS011;66135;0.000;0.000;2024-03-08T15:07:57;4.50;;;2.88;;
77160;SDS011;66135;0.000;0.000;2024-03-08T15:10:27;4.28;;;3.03;;
77160;SDS011;66135;0.000;0.000;2024-03-08T15:12:54;5.70;;;3.17;;
77160;SDS011;66135;0.000;0.000;2024-03-08T15:15:21;3.53;;;2.88;;
77160;SDS011;66135;0.000;0.000;2024-03-08T15:17:48;4.53;;;3.13;;
77160;SDS011;66135;0.000;0.000;2024-03-08T15:20:14;5.38;;;3.42;;
77160;SDS011;66135;0.000;0.000;2024-03-08T15:22:49;4.55;;;2.83;;
77160;SDS011;66135;0.000;0.000;2024-03-08T15:25:15;5.82;;;3.10;;
77160;SDS011;66135;0.000;0.000;2024-03-08T15:27:53;4.55;;;3.33;;
77160;SDS011;66135;0.000;0.000;2024-03-08T15:30:20;4.88;;;3.05;;
77160;SDS011;66135;0.000;0.000;2024-03-08T15:32:51;4.72;;;2.97;;
77160;SDS011;66135;0.000;0.000;2024-03-08T15:35:25;4.50;;;2.83;;
77160;SDS011;66135;0.000;0.000;2024-03-08T15:37:51;4.38;;;3.20;;
77160;SDS011;66135;0.000;0.000;2024-03-08T15:40:17;4.75;;;4.35;;
77160;SDS011;66135;0.000;0.000;2024-03-08T15:45:21;4.65;;;3.38;;
77160;SDS011;66135;0.000;0.000;2024-03-08T15:47:48;5.00;;;2.85;;
77160;SDS011;66135;0.000;0.000;2024-03-08T15:50:16;4.97;;;3.33;;
77160;SDS011;66135;0.000;0.000;2024-03-08T15:55:08;3.58;;;3.13;;
77160;SDS011;66135;0.000;0.000;2024-03-08T15:57:33;5.45;;;3.28;;
77160;SDS011;66135;0.000;0.000;2024-03-08T16:00:00;4.10;;;3.22;;
77160;SDS011;66135;0.000;0.000;2024-03-08T16:02:39;7.18;;;3.10;;
77160;SDS011;66135;0.000;0.000;2024-03-08T16:05:05;3.38;;;2.55;;
77160;SDS011;66135;0.000;0.000;2024-03-08T16:07:32;3.58;;;2.95;;
77160;SDS011;66135;0.000;0.000;2024-03-08T16:12:23;3.93;;;2.90;;
77160;SDS011;66135;0.000;0.000;2024-03-08T16:14:48;4.40;;;2.85;;
77160;SDS011;66135;0.000;0.000;2024-03-08T16:17:13;4.03;;;2.53;;
77160;SDS011;66135;0.000;0.000;2024-03-08T16:19:39;4.07;;;2.88;;
77160;SDS011;66135;0.000;0.000;2024-03-08T16:22:06;4.68;;;2.97;;
77160;SDS011;66135;0.000;0.000;2024-03-08T16:24:32;4.18;;;2.90;;
77160;SDS011;66135;0.000;0.000;2024-03-08T16:26:59;3.97;;;2.65;;
77160;SDS011;66135;0.000;0.000;2024-03-08T16:29:25;4.15;;;2.90;;
77160;SDS011;66135;0.000;0.000;2024-03-08T16:34:16;4.10;;;2.60;;
77160;SDS011;66135;0.000;0.000;2024-03-08T16:39:07;3.00;;;2.20;;
77160;SDS011;66135;0.000;0.000;2024-03-08T16:41:34;4.32;;;2.50;;
77160;SDS011;66135;0.000;0.000;2024-03-08T16:44:01;4.35;;;3.13;;
77160;SDS011;66135;0.000;0.000;2024-03-08T16:46:26;4.72;;;2.85;;
77160;SDS011;66135;0.000;0.000;2024-03-08T16:48:52;4.75;;;2.38;;
77160;SDS011;66135;0.000;0.000;2024-03-08T16:53:43;6.55;;;3.13;;
77160;SDS011;66135;0.000;0.000;2024-03-08T16:56:12;4.88;;;3.33;;
77160;SDS011;66135;0.000;0.000;2024-03-08T17:01:09;5.25;;;2.55;;
77160;SDS011;66135;0.000;0.000;2024-03-08T17:06:01;3.85;;;2.70;;
77160;SDS011;66135;0.000;0.000;2024-03-08T17:08:30;6.65;;;2.70;;
77160;SDS011;66135;0.000;0.000;2024-03-08T17:13:21;4.17;;;2.40;;
77160;SDS011;66135;0.000;0.000;2024-03-08T17:15:47;6.35;;;3.25;;
77160;SDS011;66135;0.000;0.000;2024-03-08T17:18:15;6.53;;;3.47;;
77160;SDS011;66135;0.000;0.000;2024-03-08T17:23:08;5.72;;;2.58;;
77160;SDS011;66135;0.000;0.000;2024-03-08T17:25:37;7.65;;;3.25;;
77160;SDS011;66135;0.000;0.000;2024-03-08T17:28:04;7.47;;;3.13;;
77160;SDS011;66135;0.000;0.000;2024-03-08T17:30:32;5.82;;;2.72;;
77160;SDS011;66135;0.000;0.000;2024-03-08T17:35:31;6.40;;;2.67;;
77160;SDS011;66135;0.000;0.000;2024-03-08T17:37:59;4.72;;;3.10;;
77160;SDS011;66135;0.000;0.000;2024-03-08T17:42:52;5.65;;;2.50;;